createdAt,value
2022-09-03T00:01:45.532Z,63.88
2022-09-03T00:04:38.506Z,68.09
2022-09-03T00:07:11.713Z,69.20
2022-09-03T00:09:47.665Z,67.69
2022-09-03T00:12:28.739Z,66.83
2022-09-03T00:15:05.074Z,65.85
2022-09-03T00:17:50.620Z,61.59
2022-09-03T00:20:22.370Z,59.82
2022-09-03T00:22:53.378Z,61.20
2022-09-03T00:25:27.009Z,60.24
2022-09-03T00:27:58.050Z,60.32
2022-09-03T00:30:25.079Z,59.53
2022-09-03T00:33:03.202Z,59.65
2022-09-03T00:35:37.974Z,59.39
2022-09-03T00:38:06.343Z,59.65
2022-09-03T00:40:55.893Z,59.49
2022-09-03T00:43:41.253Z,60.33
2022-09-03T00:46:20.249Z,61.21
2022-09-03T00:49:03.054Z,60.82
2022-09-03T00:51:53.543Z,59.67
2022-09-03T00:54:33.091Z,59.96
2022-09-03T00:57:30.801Z,60.26
2022-09-03T01:00:11.287Z,60.97
2022-09-03T01:02:50.249Z,60.06
2022-09-03T01:05:41.770Z,59.03
2022-09-03T01:08:08.420Z,57.45
2022-09-03T01:11:17.050Z,56.59
2022-09-03T01:13:46.610Z,58.92
2022-09-03T01:16:35.730Z,60.06
2022-09-03T01:19:25.596Z,61.03
2022-09-03T01:22:23.620Z,60.18
2022-09-03T01:25:11.872Z,60.51
2022-09-03T01:28:20.041Z,61.34
2022-09-03T01:30:59.418Z,61.77
2022-09-03T01:33:41.169Z,61.40
2022-09-03T01:36:20.690Z,60.60
2022-09-03T01:39:42.788Z,60.67
2022-09-03T01:42:20.739Z,60.05
2022-09-03T01:44:58.426Z,60.19
2022-09-03T01:47:58.392Z,59.66
2022-09-03T01:50:50.667Z,60.43
2022-09-03T01:53:52.797Z,59.15
2022-09-03T01:56:26.018Z,59.74
2022-09-03T01:59:07.923Z,61.27
2022-09-03T02:01:43.879Z,61.51
2022-09-03T02:04:20.702Z,62.36
2022-09-03T02:06:49.041Z,62.43
2022-09-03T02:09:19.026Z,61.74
2022-09-03T02:11:53.705Z,62.20
2022-09-03T02:14:20.940Z,61.77
2022-09-03T02:16:47.682Z,61.48
2022-09-03T02:19:17.053Z,61.98
2022-09-03T02:21:52.095Z,60.74
2022-09-03T02:24:19.356Z,59.36
2022-09-03T02:26:47.052Z,60.10
2022-09-03T02:29:16.297Z,61.15
2022-09-03T02:31:44.337Z,60.99
2022-09-03T02:34:11.180Z,61.02
2022-09-03T02:36:42.690Z,60.70
2022-09-03T02:39:09.714Z,60.29
2022-09-03T02:41:36.460Z,58.90
2022-09-03T02:44:12.107Z,59.32
2022-09-03T02:46:52.417Z,59.76
2022-09-03T02:49:19.203Z,60.41
2022-09-03T02:51:46.000Z,60.28
2022-09-03T02:54:16.723Z,60.31
2022-09-03T02:56:48.471Z,60.77
2022-09-03T02:59:15.433Z,61.89
2022-09-03T03:01:42.302Z,60.71
2022-09-03T03:04:09.358Z,60.51
2022-09-03T03:06:36.160Z,60.44
2022-09-03T03:09:05.980Z,59.15
2022-09-03T03:11:33.395Z,59.62
2022-09-03T03:14:00.159Z,59.46
2022-09-03T03:16:27.028Z,58.92
2022-09-03T03:18:53.856Z,58.74
2022-09-03T03:21:20.659Z,59.02
2022-09-03T03:23:47.384Z,59.40
2022-09-03T03:26:20.386Z,59.11
2022-09-03T03:28:49.087Z,59.23
2022-09-03T03:31:21.545Z,59.61
2022-09-03T03:33:53.394Z,59.39
2022-09-03T03:36:21.510Z,60.00
2022-09-03T03:38:48.401Z,59.72
2022-09-03T03:41:17.171Z,59.50
2022-09-03T03:43:44.922Z,60.16
2022-09-03T03:46:12.613Z,59.38
2022-09-03T03:48:39.489Z,63.50
2022-09-03T03:51:08.433Z,62.59
2022-09-03T03:53:36.874Z,61.84
2022-09-03T03:56:10.451Z,60.88
2022-09-03T03:58:38.292Z,61.38
2022-09-03T04:01:13.342Z,60.90
2022-09-03T04:03:40.565Z,60.95
2022-09-03T04:06:09.116Z,60.18
2022-09-03T04:08:37.995Z,62.34
2022-09-03T04:11:07.605Z,61.47
2022-09-03T04:13:36.536Z,61.89
2022-09-03T04:16:05.754Z,61.62
2022-09-03T04:18:32.979Z,61.92
2022-09-03T04:21:04.994Z,62.11
2022-09-03T04:23:33.156Z,62.41
2022-09-03T04:26:00.468Z,62.73
2022-09-03T04:28:27.812Z,63.45
2022-09-03T04:30:55.130Z,64.66
2022-09-03T04:33:25.111Z,64.28
2022-09-03T04:35:52.658Z,63.59
2022-09-03T04:38:19.503Z,63.08
2022-09-03T04:40:52.717Z,61.14
2022-09-03T04:43:19.478Z,59.97
2022-09-03T04:45:46.222Z,59.59
2022-09-03T04:48:13.646Z,57.43
2022-09-03T04:50:40.656Z,55.35
2022-09-03T04:53:08.305Z,52.94
2022-09-03T04:55:38.638Z,49.98
2022-09-03T04:58:08.078Z,48.22
2022-09-03T05:00:36.802Z,47.53
2022-09-03T05:03:05.269Z,46.79
2022-09-03T05:05:33.941Z,46.25
2022-09-03T05:08:04.337Z,45.89
2022-09-03T05:10:32.308Z,43.94
2022-09-03T05:13:01.379Z,42.79
2022-09-03T05:15:29.964Z,43.48
2022-09-03T05:17:59.282Z,41.96
2022-09-03T05:20:26.785Z,40.57
2022-09-03T05:22:53.654Z,39.93
2022-09-03T05:25:20.512Z,39.14
2022-09-03T05:27:47.297Z,38.66
2022-09-03T05:30:14.507Z,38.17
2022-09-03T05:32:41.806Z,37.74
2022-09-03T05:35:09.393Z,37.48
2022-09-03T05:37:36.189Z,38.21
2022-09-03T05:40:03.582Z,38.73
2022-09-03T05:42:32.438Z,39.00
2022-09-03T05:45:00.285Z,38.67
2022-09-03T05:47:27.048Z,37.91
2022-09-03T05:49:53.830Z,38.84
2022-09-03T05:52:21.866Z,38.51
2022-09-03T05:54:48.658Z,38.01
2022-09-03T05:57:16.150Z,38.49
2022-09-03T05:59:42.870Z,38.72
2022-09-03T06:02:09.751Z,40.25
2022-09-03T06:04:38.950Z,40.88
2022-09-03T06:07:05.694Z,41.33
2022-09-03T06:09:32.411Z,43.13
2022-09-03T06:12:00.028Z,41.46
2022-09-03T06:14:30.671Z,41.99
2022-09-03T06:16:57.442Z,43.08
2022-09-03T06:19:24.262Z,43.07
2022-09-03T06:21:51.301Z,43.59
2022-09-03T06:24:28.309Z,41.51
2022-09-03T06:26:56.817Z,40.58
2022-09-03T06:29:23.634Z,40.60
2022-09-03T06:31:51.090Z,41.06
2022-09-03T06:34:18.684Z,41.33
2022-09-03T06:36:46.384Z,40.91
2022-09-03T06:39:13.135Z,41.95
2022-09-03T06:41:40.280Z,41.87
2022-09-03T06:44:11.967Z,41.80
2022-09-03T06:46:42.771Z,41.92
2022-09-03T06:49:11.116Z,41.49
2022-09-03T06:51:39.098Z,41.64
2022-09-03T06:54:08.463Z,43.19
2022-09-03T06:56:40.189Z,41.92
2022-09-03T06:59:14.510Z,41.01
2022-09-03T07:01:44.435Z,38.66
2022-09-03T07:04:13.702Z,38.14
2022-09-03T07:06:42.802Z,37.53
2022-09-03T07:09:10.828Z,36.01
2022-09-03T07:11:40.352Z,35.81
2022-09-03T07:14:07.135Z,34.82
2022-09-03T07:16:37.811Z,34.57
2022-09-03T07:19:09.334Z,35.57
2022-09-03T07:21:37.118Z,33.98
2022-09-03T07:24:05.832Z,33.83
2022-09-03T07:26:38.862Z,34.29
2022-09-03T07:29:07.999Z,34.92
2022-09-03T07:31:41.027Z,34.38
2022-09-03T07:34:10.840Z,34.74
2022-09-03T07:36:47.745Z,36.62
2022-09-03T07:39:16.708Z,35.39
2022-09-03T07:41:45.935Z,33.25
2022-09-03T07:44:20.126Z,33.46
2022-09-03T07:46:50.326Z,32.90
2022-09-03T07:49:17.479Z,34.20
2022-09-03T07:51:44.451Z,33.55
2022-09-03T07:54:11.873Z,33.43
2022-09-03T07:56:40.578Z,32.29
2022-09-03T07:59:08.165Z,30.80
2022-09-03T08:01:36.097Z,35.99
2022-09-03T08:04:04.413Z,36.10
2022-09-03T08:06:32.932Z,36.76
2022-09-03T08:09:05.403Z,39.84
2022-09-03T08:11:35.355Z,41.34
2022-09-03T08:14:06.754Z,40.74
2022-09-03T08:16:42.691Z,39.48
2022-09-03T08:19:11.527Z,37.31
2022-09-03T08:21:38.699Z,38.98
2022-09-03T08:24:06.638Z,38.59
2022-09-03T08:26:39.011Z,36.01
2022-09-03T08:29:06.799Z,35.78
2022-09-03T08:31:35.080Z,35.64
2022-09-03T08:34:05.038Z,35.28
2022-09-03T08:36:34.098Z,35.80
2022-09-03T08:39:10.284Z,34.71
2022-09-03T08:41:46.389Z,33.70
2022-09-03T08:44:47.961Z,35.10
2022-09-03T08:47:29.224Z,33.96
2022-09-03T08:50:13.665Z,37.78
2022-09-03T08:53:03.179Z,36.25
2022-09-03T08:55:56.168Z,36.77
2022-09-03T08:58:26.804Z,37.36
2022-09-03T09:01:13.853Z,36.33
2022-09-03T09:04:08.295Z,36.74
2022-09-03T09:07:05.831Z,38.51
2022-09-03T09:09:59.679Z,39.04
2022-09-03T09:12:48.237Z,37.91
2022-09-03T09:15:39.558Z,37.83
2022-09-03T09:18:14.094Z,37.53
2022-09-03T09:20:54.960Z,35.58
2022-09-03T09:23:38.370Z,36.18
2022-09-03T09:26:10.954Z,37.45
2022-09-03T09:28:39.119Z,35.67
2022-09-03T09:31:15.586Z,34.30
2022-09-03T09:33:42.881Z,34.66
2022-09-03T09:36:15.577Z,32.44
2022-09-03T09:38:43.679Z,30.43
2022-09-03T09:41:30.048Z,30.28
2022-09-03T09:44:08.075Z,28.48
2022-09-03T09:46:38.954Z,27.34
2022-09-03T09:49:29.216Z,28.61
2022-09-03T09:52:04.415Z,29.12
2022-09-03T09:54:31.352Z,27.71
2022-09-03T09:57:05.118Z,26.93
2022-09-03T09:59:34.316Z,26.53
2022-09-03T10:02:22.534Z,25.73
2022-09-03T10:04:50.214Z,28.14
2022-09-03T10:07:27.343Z,25.78
2022-09-03T10:10:15.175Z,26.05
2022-09-03T10:12:51.972Z,26.33
2022-09-03T10:15:24.138Z,26.00
2022-09-03T10:18:08.589Z,26.53
2022-09-03T10:20:47.861Z,26.35
2022-09-03T10:23:30.745Z,25.43
2022-09-03T10:25:58.279Z,25.10
2022-09-03T10:28:30.478Z,26.45
2022-09-03T10:31:08.740Z,25.51
2022-09-03T10:33:42.672Z,24.93
2022-09-03T10:36:19.847Z,24.90
2022-09-03T10:38:53.153Z,24.21
2022-09-03T10:41:35.491Z,24.56
2022-09-03T10:44:13.522Z,25.35
2022-09-03T10:47:08.071Z,24.78
2022-09-03T10:50:00.109Z,27.50
2022-09-03T10:52:32.767Z,28.71
2022-09-03T10:55:31.714Z,28.25
2022-09-03T10:58:01.459Z,26.86
2022-09-03T11:00:30.985Z,25.46
2022-09-03T11:03:57.163Z,25.05
2022-09-03T11:06:29.193Z,24.50
2022-09-03T11:09:07.583Z,24.01
2022-09-03T11:11:45.323Z,23.06
2022-09-03T11:14:16.874Z,25.16
2022-09-03T11:16:48.593Z,24.35
2022-09-03T11:19:19.268Z,24.02
2022-09-03T11:21:48.629Z,23.40
2022-09-03T11:24:24.911Z,25.63
2022-09-03T11:27:02.990Z,24.96
2022-09-03T11:30:15.542Z,24.53
2022-09-03T11:32:46.819Z,24.72
2022-09-03T11:35:41.189Z,24.32
2022-09-03T11:38:17.083Z,24.20
2022-09-03T11:41:26.189Z,24.90
2022-09-03T11:43:54.586Z,24.10
2022-09-03T11:46:21.989Z,25.79
2022-09-03T11:48:55.624Z,23.67
2022-09-03T11:51:25.398Z,25.65
2022-09-03T11:54:21.058Z,27.85
2022-09-03T11:56:49.896Z,29.09
2022-09-03T11:59:27.170Z,28.46
2022-09-03T12:02:34.707Z,28.08
2022-09-03T12:05:20.057Z,30.08
2022-09-03T12:08:11.037Z,29.21
2022-09-03T12:10:40.794Z,26.38
2022-09-03T12:13:40.631Z,24.97
2022-09-03T12:16:19.439Z,23.64
2022-09-03T12:18:49.476Z,27.28
2022-09-03T12:21:17.467Z,28.95
2022-09-03T12:23:48.100Z,25.63
2022-09-03T12:26:20.067Z,26.98
2022-09-03T12:28:50.154Z,28.33
2022-09-03T12:31:29.835Z,28.71
2022-09-03T12:34:02.165Z,28.30
2022-09-03T12:36:40.945Z,28.52
2022-09-03T12:42:25.290Z,31.99
2022-09-03T12:44:52.226Z,29.74
2022-09-03T12:47:38.044Z,28.97
2022-09-03T12:50:11.662Z,30.82
2022-09-03T12:52:41.715Z,29.33
2022-09-03T12:55:49.476Z,28.68
2022-09-03T12:58:20.990Z,30.12
2022-09-03T13:01:13.700Z,31.31
2022-09-03T13:03:50.503Z,30.58
2022-09-03T13:06:21.964Z,30.28
2022-09-03T13:08:57.263Z,30.78
2022-09-03T13:11:25.732Z,29.91
2022-09-03T13:14:11.297Z,30.16
2022-09-03T13:16:38.137Z,29.23
2022-09-03T13:19:25.074Z,28.88
2022-09-03T13:22:33.420Z,27.81
2022-09-03T13:25:05.824Z,29.38
2022-09-03T13:27:32.606Z,27.89
2022-09-03T13:30:19.438Z,26.52
2022-09-03T13:33:12.305Z,25.86
2022-09-03T13:36:10.119Z,25.43
2022-09-03T13:38:43.944Z,27.55
2022-09-03T13:41:32.571Z,27.87
2022-09-03T13:44:35.911Z,26.96
2022-09-03T13:47:26.542Z,25.84
2022-09-03T13:50:21.008Z,25.76
2022-09-03T13:53:02.902Z,26.05
2022-09-03T13:55:48.392Z,24.64
2022-09-03T13:58:43.295Z,24.83
2022-09-03T14:01:39.314Z,24.80
2022-09-03T14:04:19.931Z,24.12
2022-09-03T14:06:58.026Z,23.76
2022-09-03T14:09:35.057Z,23.61
2022-09-03T14:12:25.016Z,24.56
2022-09-03T14:15:18.475Z,23.62
2022-09-03T14:18:03.305Z,24.71
2022-09-03T14:20:53.984Z,24.07
2022-09-03T14:23:38.824Z,25.46
2022-09-03T14:26:07.632Z,24.48
2022-09-03T14:28:40.436Z,24.86
2022-09-03T14:31:19.437Z,24.49
2022-09-03T14:33:46.084Z,25.02
2022-09-03T14:36:21.213Z,25.34
2022-09-03T14:39:13.214Z,25.04
2022-09-03T14:42:23.959Z,25.26
2022-09-03T14:44:56.791Z,25.94
2022-09-03T14:47:48.618Z,25.53
2022-09-03T14:50:46.559Z,25.30
2022-09-03T14:53:21.976Z,25.37
2022-09-03T14:56:07.217Z,26.58
2022-09-03T14:58:58.688Z,26.57
2022-09-03T15:01:29.572Z,26.59
2022-09-03T15:04:54.636Z,26.58
2022-09-03T15:07:28.110Z,26.90
2022-09-03T15:10:19.359Z,27.82
2022-09-03T15:12:55.296Z,27.45
2022-09-03T15:15:34.076Z,27.87
2022-09-03T15:18:12.785Z,29.53
2022-09-03T15:20:58.160Z,30.17
2022-09-03T15:23:43.735Z,29.44
2022-09-03T15:26:20.825Z,28.94
2022-09-03T15:29:40.582Z,29.71
2022-09-03T15:32:17.067Z,30.69
2022-09-03T15:34:49.132Z,30.67
2022-09-03T15:37:28.618Z,31.34
2022-09-03T15:40:50.141Z,31.89
2022-09-03T15:43:26.264Z,32.94
2022-09-03T15:45:58.511Z,34.75
2022-09-03T15:48:39.501Z,36.55
2022-09-03T15:51:29.003Z,35.84
2022-09-03T15:54:07.912Z,36.27
2022-09-03T15:56:38.633Z,36.37
2022-09-03T15:59:08.121Z,37.15
2022-09-03T16:01:46.391Z,37.21
2022-09-03T16:04:16.001Z,36.07
2022-09-03T16:07:18.163Z,36.63
2022-09-03T16:10:24.208Z,37.82
2022-09-03T16:13:29.020Z,37.55
2022-09-03T16:16:34.245Z,36.82
2022-09-03T16:19:10.777Z,38.06
2022-09-03T16:21:50.926Z,39.05
2022-09-03T16:24:24.065Z,38.01
2022-09-03T16:26:58.199Z,38.44
2022-09-03T16:29:31.236Z,37.93
2022-09-03T16:32:39.666Z,37.76
2022-09-03T16:35:09.034Z,37.67
2022-09-03T16:37:45.433Z,37.96
2022-09-03T16:40:27.976Z,38.03
2022-09-03T16:43:00.741Z,36.81
2022-09-03T16:45:34.633Z,37.46
2022-09-03T16:48:04.458Z,38.53
2022-09-03T16:50:52.160Z,37.16
2022-09-03T16:53:46.069Z,38.25
2022-09-03T16:56:12.776Z,37.57
2022-09-03T16:59:36.766Z,38.05
2022-09-03T17:02:40.010Z,37.09
2022-09-03T17:05:23.054Z,37.90
2022-09-03T17:08:21.038Z,37.65
2022-09-03T17:11:00.063Z,37.72
2022-09-03T17:13:42.051Z,37.41
2022-09-03T17:16:23.652Z,37.32
2022-09-03T17:19:09.991Z,37.41
2022-09-03T17:22:05.677Z,37.64
2022-09-03T17:24:38.175Z,38.50
2022-09-03T17:27:32.309Z,39.10
2022-09-03T17:30:24.214Z,38.77
2022-09-03T17:33:35.089Z,39.28
2022-09-03T17:36:08.521Z,40.65
2022-09-03T17:38:44.036Z,40.16
2022-09-03T17:41:35.680Z,41.63
2022-09-03T17:44:09.303Z,41.75
2022-09-03T17:46:57.938Z,42.34
2022-09-03T17:49:42.579Z,42.65
2022-09-03T17:52:41.541Z,42.90
2022-09-03T17:55:15.869Z,43.76
2022-09-03T17:57:54.294Z,45.44
2022-09-03T18:00:59.093Z,47.11
2022-09-03T18:03:30.306Z,47.19
2022-09-03T18:06:01.456Z,46.93
2022-09-03T18:08:45.124Z,45.89
2022-09-03T18:11:38.164Z,46.01
2022-09-03T18:14:31.155Z,46.27
2022-09-03T18:17:12.433Z,45.46
2022-09-03T18:20:22.388Z,46.27
2022-09-03T18:23:11.264Z,45.49
2022-09-03T18:26:01.267Z,45.99
2022-09-03T18:29:12.840Z,46.35
2022-09-03T18:31:58.569Z,46.17
2022-09-03T18:34:50.303Z,46.75
2022-09-03T18:37:39.611Z,47.51
2022-09-03T18:40:28.885Z,46.87
2022-09-03T18:43:58.753Z,46.17
2022-09-03T18:48:01.633Z,45.93
2022-09-03T18:50:22.907Z,45.89
2022-09-03T18:53:21.225Z,46.67
2022-09-03T18:56:31.550Z,46.45
2022-09-03T19:00:12.285Z,46.22
2022-09-03T19:03:26.786Z,46.64
2022-09-03T19:06:24.524Z,47.51
2022-09-03T19:09:35.915Z,49.03
2022-09-03T19:12:40.029Z,49.47
2022-09-03T19:15:39.947Z,51.79
2022-09-03T19:18:29.770Z,51.67
2022-09-03T19:21:24.295Z,51.20
2022-09-03T19:24:12.018Z,51.04
2022-09-03T19:27:53.030Z,52.48
2022-09-03T19:30:43.329Z,52.54
2022-09-03T19:34:02.838Z,53.12
2022-09-03T19:37:07.952Z,53.07
2022-09-03T19:40:11.615Z,53.62
2022-09-03T19:43:28.039Z,53.68
2022-09-03T19:47:01.319Z,54.32
2022-09-03T19:49:59.886Z,53.70
2022-09-03T19:53:01.427Z,52.31
2022-09-03T19:55:53.014Z,52.72
2022-09-03T19:58:44.424Z,52.98
2022-09-03T20:01:31.963Z,52.70
2022-09-03T20:04:30.693Z,53.25
2022-09-03T20:07:19.380Z,53.03
2022-09-03T20:10:07.112Z,53.02
2022-09-03T20:12:38.845Z,53.08
2022-09-03T20:15:08.573Z,52.64
2022-09-03T20:17:35.275Z,52.55
2022-09-03T20:20:32.804Z,52.97
2022-09-03T20:23:14.546Z,53.26
2022-09-03T20:25:53.410Z,53.19
2022-09-03T20:28:26.208Z,53.08
2022-09-03T20:31:03.930Z,52.68
2022-09-03T20:33:53.697Z,52.68
2022-09-03T20:36:26.371Z,52.75
2022-09-03T20:39:15.626Z,54.24
2022-09-03T20:41:48.426Z,53.73
2022-09-03T20:44:32.078Z,54.29
2022-09-03T20:47:14.147Z,54.77
2022-09-03T20:50:23.467Z,54.12
2022-09-03T20:53:02.206Z,54.10
2022-09-03T20:55:51.035Z,53.28
2022-09-03T20:58:48.097Z,53.58
2022-09-03T21:01:31.046Z,53.60
2022-09-03T21:04:17.671Z,54.16
2022-09-03T21:06:50.334Z,54.28
2022-09-03T21:09:53.130Z,54.79
2022-09-03T21:12:44.811Z,54.37
2022-09-03T21:15:37.480Z,55.55
2022-09-03T21:18:13.573Z,56.17
2022-09-03T21:21:01.624Z,55.70
2022-09-03T21:23:33.218Z,55.69
2022-09-03T21:26:28.412Z,56.59
2022-09-03T21:29:10.453Z,55.55
2022-09-03T21:31:50.582Z,55.21
2022-09-03T21:34:45.632Z,55.92
2022-09-03T21:37:14.351Z,55.85
2022-09-03T21:39:56.502Z,55.53
2022-09-03T21:42:59.937Z,56.10
2022-09-03T21:45:32.367Z,55.55
2022-09-03T21:48:25.258Z,55.23
2022-09-03T21:50:58.426Z,56.24
2022-09-03T21:53:49.439Z,56.68
2022-09-03T21:56:22.016Z,56.13
2022-09-03T21:59:09.628Z,55.04
2022-09-03T22:01:41.993Z,55.19
2022-09-03T22:04:09.707Z,55.30
2022-09-03T22:07:00.164Z,56.01
2022-09-03T22:09:30.735Z,56.83
2022-09-03T22:12:13.775Z,57.95
2022-09-03T22:14:48.245Z,56.44
2022-09-03T22:17:30.245Z,57.31
2022-09-03T22:19:57.205Z,56.19
2022-09-03T22:22:44.213Z,55.97
2022-09-03T22:25:20.285Z,56.87
2022-09-03T22:28:00.925Z,56.98
2022-09-03T22:30:37.525Z,56.43
2022-09-03T22:33:37.046Z,56.43
2022-09-03T22:36:28.070Z,59.74
2022-09-03T22:39:36.461Z,57.73
2022-09-03T22:42:28.317Z,58.02
2022-09-03T22:45:13.629Z,59.19
2022-09-03T22:48:09.565Z,59.82
2022-09-03T22:50:42.346Z,59.88
2022-09-03T22:53:38.335Z,59.23
2022-09-03T22:56:13.154Z,58.54
2022-09-03T22:58:48.126Z,58.25
2022-09-03T23:01:25.142Z,56.75
2022-09-03T23:04:00.067Z,58.16
2022-09-03T23:06:32.658Z,58.62
2022-09-03T23:09:04.645Z,59.53
2022-09-03T23:11:53.113Z,58.91
2022-09-03T23:14:28.527Z,58.17
2022-09-03T23:17:00.603Z,56.40
2022-09-03T23:19:39.107Z,56.85
2022-09-03T23:22:13.378Z,57.37
2022-09-03T23:24:49.467Z,58.82
2022-09-03T23:27:27.355Z,60.73
2022-09-03T23:29:57.046Z,60.40
2022-09-03T23:32:25.546Z,60.14
2022-09-03T23:34:58.370Z,59.53
2022-09-03T23:37:47.205Z,61.09
2022-09-03T23:40:33.197Z,61.00
2022-09-03T23:42:59.836Z,61.20
2022-09-03T23:46:04.124Z,60.73
2022-09-03T23:48:36.839Z,60.62
2022-09-03T23:51:31.246Z,60.55
2022-09-03T23:54:33.135Z,64.03
2022-09-03T23:57:08.451Z,60.92
2022-09-03T23:59:41.214Z,62.43
